Long Lake, NY (12847)

4:19 PM EDT on March 26, 2017 (GMT -0400)
Adirondack Acres W2CJS | | Change Station
Active Advisory: Freezing Rain Advisory

Elev 1650 ft 43.98 °N, 74.43 °W | Updated 1 second ago

Overcast
Overcast
33.0 °F
Feels Like 33 °F
N
1.0
Wind Variable Wind from NE
Gusts 8.0 mph

Today
High -- | Low -- °F
--% Chance of Precip.
Yesterday
High -- | Low -- °F
Precip. -- in
Pressure 30.34 in
Visibility 10.0 miles
Clouds Overcast 2400 ft
Windchill 33 °F
Dew Point 29 °F
Humidity 86%
Rainfall 0.02 in
Snow Depth Not available.
6:49 AM 7:17 PM
Waning Crescent, 2% visible
METAR KSLK 261951Z AUTO 16006KT 10SM OVC024 02/M03 A3025 RMK AO2 SLP272 T00221028 $
Pressure 30.34 in
Visibility 10.0 miles
Clouds Overcast 2400 ft
Windchill 33 °F
Dew Point 29 °F
Humidity 86%
Rainfall 0.02 in
Snow Depth Not available.
6:49 AM 7:17 PM
Waning Crescent, 2% visible
METAR KSLK 261951Z AUTO 16006KT 10SM OVC024 02/M03 A3025 RMK AO2 SLP272 T00221028 $

Get Your Daily Forecast Email!

Thanks for signing up!

Be on the lookout for a verification email in your inbox.

You'll start receiving severe weather alerts in your inbox..

×

10-Day Weather Forecast

Almanac

Astronomy

Mar. 26, 2017 Rise Set
Actual Time
Civil Twilight
Nautical Twilight
Astronomical Twilight
Moon
Length of Visible Light
Length of Day
Tomorrow will be .
, % of the Moon is Illuminated

Today's Extremes

State Highs State Lows

Community

WunderPhotos

Upload Photos

1,962,540 photos uploaded!

WunderBlog® & News

Nearby

Air Quality

  Air Quality AQ Index Pollutant
Not available.

Snow Depth

Station Depth Elevation

Earthquake Activity

City Distance Mag. Time & Date
Minimum magnitude displayed is 2.5.

Earthquake Activity

City Distance Mag. Time & Date
Minimum magnitude displayed is 2.5.

Coastal Water Temperatures

Place Temperature

Stations

Nearby Weather Stations

Station Location Temp. Windchill Dew Point Humidity Wind Precip. Elev Updated Type
                   

Watches & Warnings

Freezing Rain Advisory
Issued: 3:19 PM EDT Mar. 26, 2017 – National Weather Service

... Freezing Rain Advisory in effect until 2 am EDT Monday...

The National Weather Service in Albany has issued a Freezing Rain
Advisory, which is in effect until 2 am EDT Monday.

* Locations... Hamilton and northern Warren counties

* hazard types... freezing rain.

* Ice accumulations... around a tenth of an inch with isolated
higher amounts.

* Timing... freezing rain will occur this evening and transition to
plain rain in the early morning hours.

* Impacts... hazardous travel due to icy roads. Isolated power
outages are possible.

* Temperatures... in the upper 20s to lower 30s.

Precautionary/preparedness actions...

A Freezing Rain Advisory means that periods of freezing rain or
freezing drizzle will cause travel difficulties. Be prepared for
slippery roads. Slow down and use caution while driving.